createdAt,value
2018-12-13T00:00:10.021Z,50.41
2018-12-13T00:00:41.640Z,50.38
2018-12-13T00:01:13.249Z,50.43
2018-12-13T00:01:44.845Z,50.47
2018-12-13T00:02:16.437Z,50.50
2018-12-13T00:02:49.112Z,50.61
2018-12-13T00:03:19.698Z,50.66
2018-12-13T00:03:51.341Z,50.75
2018-12-13T00:04:22.953Z,50.82
2018-12-13T00:04:54.546Z,50.88
2018-12-13T00:05:26.145Z,51.01
2018-12-13T00:05:57.779Z,51.04
2018-12-13T00:06:33.350Z,51.12
2018-12-13T00:07:01.058Z,51.22
2018-12-13T00:07:32.654Z,51.24
2018-12-13T00:08:04.250Z,51.29
2018-12-13T00:08:35.842Z,51.32
2018-12-13T00:09:07.427Z,51.42
2018-12-13T00:09:39.024Z,51.50
2018-12-13T00:10:10.627Z,51.63
2018-12-13T00:10:42.248Z,51.57
2018-12-13T00:11:13.845Z,51.62
2018-12-13T00:11:45.441Z,51.69
2018-12-13T00:12:17.032Z,51.72
2018-12-13T00:12:48.649Z,51.78
2018-12-13T00:13:20.250Z,51.84
2018-12-13T00:13:51.855Z,51.86
2018-12-13T00:14:23.439Z,51.87
2018-12-13T00:14:55.045Z,51.88
2018-12-13T00:15:26.648Z,51.94
2018-12-13T00:15:58.274Z,51.92
2018-12-13T00:16:29.874Z,51.97
2018-12-13T00:17:01.469Z,51.98
2018-12-13T00:17:33.056Z,52.00
2018-12-13T00:18:04.653Z,51.98
2018-12-13T00:18:36.246Z,52.04
2018-12-13T00:19:07.852Z,52.03
2018-12-13T00:19:39.455Z,52.13
2018-12-13T00:20:11.040Z,52.09
2018-12-13T00:20:42.643Z,52.12
2018-12-13T00:21:14.261Z,52.16
2018-12-13T00:21:45.859Z,52.17
2018-12-13T00:22:17.468Z,52.14
2018-12-13T00:22:49.064Z,52.19
2018-12-13T00:23:20.648Z,52.19
2018-12-13T00:23:52.228Z,52.17
2018-12-13T00:24:23.835Z,52.22
2018-12-13T00:24:55.434Z,52.26
2018-12-13T00:25:27.043Z,52.27
2018-12-13T00:25:58.661Z,52.21
2018-12-13T00:26:30.244Z,52.17
2018-12-13T00:27:01.839Z,52.20
2018-12-13T00:27:33.448Z,52.25
2018-12-13T00:28:05.045Z,52.24
2018-12-13T00:28:36.652Z,52.25
2018-12-13T00:29:08.272Z,52.26
2018-12-13T00:29:39.866Z,52.39
2018-12-13T00:30:11.453Z,52.44
2018-12-13T00:30:43.038Z,52.53
2018-12-13T00:31:14.657Z,52.42
2018-12-13T00:31:46.249Z,52.54
2018-12-13T00:32:17.851Z,52.52
2018-12-13T00:32:49.448Z,52.64
2018-12-13T00:33:21.043Z,52.41
2018-12-13T00:33:52.660Z,52.54
2018-12-13T00:34:24.244Z,52.67
2018-12-13T00:34:55.845Z,52.68
2018-12-13T00:35:27.448Z,52.89
2018-12-13T00:35:59.068Z,52.73
2018-12-13T00:36:30.662Z,52.79
2018-12-13T00:37:02.253Z,52.89
2018-12-13T00:37:33.862Z,52.93
2018-12-13T00:38:05.476Z,52.87
2018-12-13T00:38:37.083Z,52.83
2018-12-13T00:39:08.693Z,52.85
2018-12-13T00:39:40.289Z,52.84
2018-12-13T00:40:11.882Z,52.96
2018-12-13T00:40:43.483Z,52.78
2018-12-13T00:41:15.113Z,52.95
2018-12-13T00:41:46.719Z,52.95
2018-12-13T00:42:18.303Z,52.83
2018-12-13T00:42:49.897Z,52.84
2018-12-13T00:43:21.480Z,52.87
2018-12-13T00:43:53.088Z,52.81
2018-12-13T00:44:24.696Z,52.88
2018-12-13T00:44:56.300Z,52.86
2018-12-13T00:45:28.206Z,53.01
2018-12-13T00:45:59.799Z,53.03
2018-12-13T00:46:31.432Z,53.09
2018-12-13T00:47:03.025Z,53.05
2018-12-13T00:47:34.622Z,53.02
2018-12-13T00:48:06.221Z,52.99
2018-12-13T00:48:37.813Z,53.04
2018-12-13T00:49:09.405Z,53.07
2018-12-13T00:49:41.017Z,53.23
2018-12-13T00:50:12.614Z,53.20
2018-12-13T00:50:44.216Z,53.35
2018-12-13T00:51:15.843Z,53.15
2018-12-13T00:51:47.426Z,53.26
2018-12-13T00:52:19.043Z,53.04
2018-12-13T00:52:50.644Z,53.02
2018-12-13T00:53:22.238Z,53.30
2018-12-13T00:53:53.834Z,53.58
2018-12-13T00:54:25.425Z,53.63
2018-12-13T00:54:57.012Z,53.87
2018-12-13T00:55:28.619Z,53.43
2018-12-13T00:56:00.204Z,53.55
2018-12-13T00:56:31.825Z,53.57
2018-12-13T00:57:03.428Z,53.73
2018-12-13T00:57:35.021Z,53.57
2018-12-13T00:58:06.614Z,53.68
2018-12-13T00:58:38.214Z,53.61
2018-12-13T00:59:09.810Z,53.63
2018-12-13T00:59:41.406Z,53.54
2018-12-13T01:00:12.998Z,53.60
2018-12-13T01:00:44.583Z,53.56
2018-12-13T01:01:16.191Z,53.55
2018-12-13T01:01:47.795Z,53.61
2018-12-13T01:02:19.390Z,53.58
2018-12-13T01:02:50.995Z,53.46
2018-12-13T01:03:22.591Z,53.65
2018-12-13T01:03:54.167Z,53.72
2018-12-13T01:04:25.776Z,53.71
2018-12-13T01:04:57.374Z,53.60
2018-12-13T01:05:29.478Z,53.45
2018-12-13T01:06:01.079Z,53.58
2018-12-13T01:06:32.719Z,53.55
2018-12-13T01:07:04.322Z,53.78
2018-12-13T01:07:35.914Z,53.67
2018-12-13T01:08:07.510Z,53.74
2018-12-13T01:08:39.120Z,53.78
2018-12-13T01:09:10.728Z,53.85
2018-12-13T01:09:42.340Z,53.68
2018-12-13T01:10:13.933Z,53.61
2018-12-13T01:10:45.522Z,53.71
2018-12-13T01:11:17.114Z,53.53
2018-12-13T01:11:48.742Z,53.44
2018-12-13T01:12:20.344Z,53.71
2018-12-13T01:12:51.951Z,53.98
2018-12-13T01:13:23.545Z,54.16
2018-12-13T01:13:55.156Z,53.99
2018-12-13T01:14:26.758Z,53.67
2018-12-13T01:14:58.354Z,53.64
2018-12-13T01:15:29.959Z,53.40
2018-12-13T01:16:01.557Z,53.16
2018-12-13T01:16:33.182Z,53.21
2018-12-13T01:17:04.829Z,53.28
2018-12-13T01:17:36.436Z,53.22
2018-12-13T01:18:08.021Z,53.14
2018-12-13T01:18:39.617Z,53.18
2018-12-13T01:19:11.225Z,53.17
2018-12-13T01:19:42.817Z,53.16
2018-12-13T01:20:14.425Z,53.21
2018-12-13T01:20:46.038Z,53.19
2018-12-13T01:21:20.592Z,53.19
2018-12-13T01:21:49.326Z,53.27
2018-12-13T01:22:20.981Z,53.23
2018-12-13T01:22:52.577Z,53.26
2018-12-13T01:23:24.183Z,53.25
2018-12-13T01:23:55.764Z,53.25
2018-12-13T01:24:27.360Z,53.34
2018-12-13T01:24:58.953Z,53.42
2018-12-13T01:25:30.546Z,53.31
2018-12-13T01:26:02.152Z,53.32
2018-12-13T01:26:33.779Z,53.45
2018-12-13T01:27:05.373Z,53.45
2018-12-13T01:27:36.956Z,53.41
2018-12-13T01:28:08.555Z,53.39
2018-12-13T01:28:40.150Z,53.42
2018-12-13T01:29:11.747Z,53.50
2018-12-13T01:29:43.341Z,53.57
2018-12-13T01:30:14.947Z,53.52
2018-12-13T01:30:46.544Z,53.58
2018-12-13T01:31:18.156Z,53.58
2018-12-13T01:31:49.863Z,53.57
2018-12-13T01:32:21.458Z,53.51
2018-12-13T01:32:53.059Z,53.57
2018-12-13T01:33:24.657Z,53.47
2018-12-13T01:33:56.248Z,53.47
2018-12-13T01:34:27.849Z,53.57
2018-12-13T01:34:59.452Z,53.55
2018-12-13T01:35:31.051Z,53.68
2018-12-13T01:36:02.641Z,53.73
2018-12-13T01:36:34.248Z,53.70
2018-12-13T01:37:05.841Z,53.74
2018-12-13T01:37:37.444Z,53.75
2018-12-13T01:38:09.050Z,53.84
2018-12-13T01:38:40.649Z,53.81
2018-12-13T01:39:12.256Z,53.85
2018-12-13T01:39:43.859Z,53.96
2018-12-13T01:40:15.480Z,53.92
2018-12-13T01:40:47.074Z,53.99
2018-12-13T01:41:18.688Z,53.99
2018-12-13T01:41:50.291Z,53.99
2018-12-13T01:42:21.888Z,54.02
2018-12-13T01:42:53.484Z,54.03
2018-12-13T01:43:25.128Z,54.15
2018-12-13T01:43:56.724Z,54.13
2018-12-13T01:44:28.319Z,54.24
2018-12-13T01:44:59.909Z,54.26
2018-12-13T01:45:31.524Z,54.29
2018-12-13T01:46:03.117Z,54.46
2018-12-13T01:46:34.730Z,54.41
2018-12-13T01:47:06.321Z,54.49
2018-12-13T01:47:37.913Z,54.52
2018-12-13T01:48:09.519Z,54.55
2018-12-13T01:48:41.115Z,54.47
2018-12-13T01:49:12.705Z,54.52
2018-12-13T01:49:44.311Z,54.57
2018-12-13T01:50:15.887Z,54.53
2018-12-13T01:50:47.471Z,54.58
2018-12-13T01:51:19.062Z,54.43
2018-12-13T01:51:50.668Z,54.42
2018-12-13T01:52:22.269Z,54.51
2018-12-13T01:52:53.866Z,54.68
2018-12-13T01:53:25.458Z,54.70
2018-12-13T01:53:57.053Z,54.60
2018-12-13T01:54:28.655Z,54.84
2018-12-13T01:55:00.307Z,54.88
2018-12-13T01:55:31.898Z,54.94
2018-12-13T01:56:03.500Z,55.01
2018-12-13T01:56:35.097Z,55.08
2018-12-13T01:57:06.714Z,55.18
2018-12-13T01:57:38.320Z,55.27
2018-12-13T01:58:09.928Z,55.16
2018-12-13T01:58:41.526Z,54.91
2018-12-13T01:59:13.127Z,54.84
2018-12-13T01:59:44.736Z,55.08
2018-12-13T02:00:16.351Z,54.84
2018-12-13T02:00:47.957Z,54.99
2018-12-13T02:01:19.563Z,54.94
2018-12-13T02:01:51.157Z,54.87
2018-12-13T02:02:22.807Z,54.87
2018-12-13T02:02:54.415Z,54.82
2018-12-13T02:03:26.000Z,54.85
2018-12-13T02:03:57.594Z,54.93
2018-12-13T02:04:29.190Z,54.92
2018-12-13T02:05:00.799Z,54.94
2018-12-13T02:05:32.403Z,54.82
2018-12-13T02:06:04.011Z,54.91
2018-12-13T02:06:35.612Z,54.92
2018-12-13T02:07:07.220Z,54.90
2018-12-13T02:07:38.805Z,54.75
2018-12-13T02:08:10.406Z,54.71
2018-12-13T02:08:42.015Z,54.89
2018-12-13T02:09:13.627Z,55.02
2018-12-13T02:09:45.221Z,54.90
2018-12-13T02:10:16.810Z,54.99
2018-12-13T02:10:48.402Z,55.11
2018-12-13T02:11:19.983Z,55.00
2018-12-13T02:11:51.592Z,55.10
2018-12-13T02:12:23.218Z,54.99
2018-12-13T02:12:54.814Z,54.77
2018-12-13T02:13:26.412Z,54.97
2018-12-13T02:13:58.089Z,55.00
2018-12-13T02:14:29.689Z,54.97
2018-12-13T02:15:01.305Z,54.88
2018-12-13T02:15:32.904Z,54.79
2018-12-13T02:16:04.504Z,55.01
2018-12-13T02:16:36.094Z,54.88
2018-12-13T02:17:07.730Z,54.88
2018-12-13T02:17:39.338Z,54.69
2018-12-13T02:18:10.934Z,54.79
2018-12-13T02:18:42.529Z,54.71
2018-12-13T02:19:14.121Z,54.88
2018-12-13T02:19:45.778Z,54.78
2018-12-13T02:20:17.361Z,54.78
2018-12-13T02:20:48.959Z,55.10
2018-12-13T02:21:20.555Z,54.72
2018-12-13T02:21:52.151Z,54.91
2018-12-13T02:22:23.783Z,54.81
2018-12-13T02:22:55.391Z,54.76
2018-12-13T02:23:27.004Z,54.74
2018-12-13T02:23:58.616Z,54.57
2018-12-13T02:24:30.227Z,54.72
2018-12-13T02:25:01.854Z,54.66
2018-12-13T02:25:33.454Z,54.74
2018-12-13T02:26:05.059Z,54.67
2018-12-13T02:26:36.667Z,54.71
2018-12-13T02:27:08.301Z,54.56
2018-12-13T02:27:39.915Z,54.57
2018-12-13T02:28:11.511Z,54.57
2018-12-13T02:28:43.107Z,54.81
2018-12-13T02:29:14.715Z,54.51
2018-12-13T02:29:46.318Z,54.80
2018-12-13T02:30:17.919Z,54.71
2018-12-13T02:30:49.519Z,54.62
2018-12-13T02:31:21.131Z,54.65
2018-12-13T02:31:52.728Z,54.64
2018-12-13T02:32:24.361Z,54.78
2018-12-13T02:32:55.967Z,54.89
2018-12-13T02:33:27.565Z,54.66
2018-12-13T02:33:59.158Z,54.72
2018-12-13T02:34:30.756Z,54.54
2018-12-13T02:35:02.367Z,54.63
2018-12-13T02:35:33.999Z,54.61
2018-12-13T02:36:05.608Z,54.72
2018-12-13T02:36:37.192Z,54.78
2018-12-13T02:37:08.790Z,54.60
2018-12-13T02:37:40.396Z,54.70
2018-12-13T02:38:11.990Z,54.67
2018-12-13T02:38:43.587Z,55.09
2018-12-13T02:39:15.188Z,54.58
2018-12-13T02:39:46.803Z,54.72
2018-12-13T02:40:18.412Z,54.81
2018-12-13T02:40:50.028Z,54.72
2018-12-13T02:41:21.608Z,54.91
2018-12-13T02:41:53.215Z,54.71
2018-12-13T02:42:24.838Z,54.70
2018-12-13T02:42:56.449Z,54.51
2018-12-13T02:43:28.050Z,54.80
2018-12-13T02:43:59.641Z,54.81
2018-12-13T02:44:31.233Z,54.92
2018-12-13T02:45:02.841Z,55.03
2018-12-13T02:45:34.438Z,54.98
2018-12-13T02:46:06.030Z,54.92
2018-12-13T02:46:37.629Z,55.00
2018-12-13T02:47:09.221Z,55.00
2018-12-13T02:47:40.837Z,55.02
2018-12-13T02:48:12.434Z,54.99
2018-12-13T02:48:44.029Z,54.96
2018-12-13T02:49:15.637Z,55.01
2018-12-13T02:49:47.257Z,54.99
2018-12-13T02:50:18.891Z,55.11
2018-12-13T02:50:50.502Z,54.82
2018-12-13T02:51:22.094Z,54.89
2018-12-13T02:51:53.696Z,54.83
2018-12-13T02:52:25.336Z,54.92
2018-12-13T02:52:56.953Z,54.95
2018-12-13T02:53:28.547Z,54.88
2018-12-13T02:54:00.151Z,54.90
2018-12-13T02:54:31.761Z,54.95
2018-12-13T02:55:03.361Z,54.88
2018-12-13T02:55:34.967Z,55.06
2018-12-13T02:56:06.561Z,54.92
2018-12-13T02:56:38.174Z,54.87
2018-12-13T02:57:09.784Z,55.10
2018-12-13T02:57:41.422Z,55.07
2018-12-13T02:58:13.018Z,55.03
2018-12-13T02:58:44.624Z,55.08
2018-12-13T02:59:16.224Z,55.18
2018-12-13T02:59:47.826Z,55.06
2018-12-13T03:00:19.408Z,55.07
2018-12-13T03:00:51.006Z,55.29
2018-12-13T03:01:22.612Z,55.36
2018-12-13T03:01:54.222Z,55.35
2018-12-13T03:02:25.829Z,55.20
2018-12-13T03:02:57.453Z,55.30
2018-12-13T03:03:29.051Z,55.36
2018-12-13T03:04:00.659Z,55.44
2018-12-13T03:04:32.252Z,55.64
2018-12-13T03:05:03.846Z,55.54
2018-12-13T03:05:35.453Z,55.79
2018-12-13T03:06:07.036Z,55.78
2018-12-13T03:06:38.642Z,55.90
2018-12-13T03:07:13.796Z,55.90
2018-12-13T03:07:41.902Z,55.79
2018-12-13T03:08:13.512Z,55.71
2018-12-13T03:08:45.107Z,56.07
2018-12-13T03:09:16.716Z,55.98
2018-12-13T03:09:48.321Z,56.06
2018-12-13T03:10:19.923Z,55.93
2018-12-13T03:10:51.518Z,56.14
2018-12-13T03:11:23.109Z,56.23
2018-12-13T03:11:54.712Z,56.22
2018-12-13T03:12:26.328Z,56.11
2018-12-13T03:12:57.939Z,56.09
2018-12-13T03:13:29.549Z,56.48
2018-12-13T03:14:01.155Z,56.68
2018-12-13T03:14:32.755Z,56.47
2018-12-13T03:15:04.349Z,56.30
2018-12-13T03:15:35.955Z,56.94
2018-12-13T03:16:07.549Z,56.56
2018-12-13T03:16:39.142Z,56.71
2018-12-13T03:17:10.737Z,56.68
2018-12-13T03:17:42.357Z,56.71
2018-12-13T03:18:13.959Z,57.13
2018-12-13T03:18:45.571Z,56.82
2018-12-13T03:19:17.165Z,56.68
2018-12-13T03:19:48.769Z,56.86
2018-12-13T03:20:20.354Z,56.71
2018-12-13T03:20:51.955Z,56.68
2018-12-13T03:21:23.569Z,56.46
2018-12-13T03:21:55.180Z,56.61
2018-12-13T03:22:26.775Z,56.71
2018-12-13T03:22:58.408Z,56.65
2018-12-13T03:23:30.007Z,56.85
2018-12-13T03:24:01.629Z,56.78
2018-12-13T03:24:33.216Z,57.07
2018-12-13T03:25:04.796Z,56.86
2018-12-13T03:25:36.488Z,56.95
2018-12-13T03:26:08.090Z,56.93
2018-12-13T03:26:39.702Z,57.03
2018-12-13T03:27:11.301Z,56.64
2018-12-13T03:27:42.910Z,57.06
2018-12-13T03:28:14.529Z,57.17
2018-12-13T03:28:46.128Z,57.13
2018-12-13T03:29:17.729Z,57.18
2018-12-13T03:29:49.308Z,57.12
2018-12-13T03:30:20.923Z,56.98
2018-12-13T03:30:52.513Z,56.83
2018-12-13T03:31:24.135Z,56.80
2018-12-13T03:31:55.742Z,56.65
2018-12-13T03:32:27.338Z,56.82
2018-12-13T03:32:58.985Z,56.71
2018-12-13T03:33:30.596Z,56.75
2018-12-13T03:34:02.212Z,56.72
2018-12-13T03:34:33.805Z,56.82
2018-12-13T03:35:05.408Z,56.75
2018-12-13T03:35:37.006Z,56.53
2018-12-13T03:36:08.612Z,57.37
2018-12-13T03:36:40.207Z,56.96
2018-12-13T03:37:11.792Z,56.96
2018-12-13T03:37:43.385Z,56.99
2018-12-13T03:38:14.989Z,56.73
2018-12-13T03:38:46.589Z,56.69
2018-12-13T03:39:18.174Z,56.79
2018-12-13T03:39:49.824Z,56.89
2018-12-13T03:40:21.417Z,56.64
2018-12-13T03:40:53.011Z,56.67
2018-12-13T03:41:24.601Z,56.81
2018-12-13T03:41:56.203Z,56.47
2018-12-13T03:42:27.799Z,56.72
2018-12-13T03:42:59.447Z,56.65
2018-12-13T03:43:31.048Z,56.98
2018-12-13T03:44:02.650Z,56.79
2018-12-13T03:44:34.246Z,56.50
2018-12-13T03:45:05.861Z,56.55
2018-12-13T03:45:37.460Z,56.48
2018-12-13T03:46:09.053Z,56.40
2018-12-13T03:46:40.658Z,56.42
2018-12-13T03:47:12.259Z,56.73
2018-12-13T03:47:43.868Z,56.90
2018-12-13T03:48:15.480Z,57.06
2018-12-13T03:48:47.092Z,56.98
2018-12-13T03:49:18.689Z,56.96
2018-12-13T03:49:50.296Z,56.65
2018-12-13T03:50:21.885Z,56.64
2018-12-13T03:50:53.492Z,56.36
2018-12-13T03:51:25.090Z,56.79
2018-12-13T03:51:56.669Z,56.72
2018-12-13T03:52:28.247Z,56.45
2018-12-13T03:52:59.879Z,56.49
2018-12-13T03:53:31.505Z,56.42
2018-12-13T03:54:03.099Z,56.25
2018-12-13T03:54:34.723Z,56.26
2018-12-13T03:55:06.335Z,56.30
2018-12-13T03:55:37.941Z,56.23
2018-12-13T03:56:09.545Z,56.22
2018-12-13T03:56:41.151Z,56.10
2018-12-13T03:57:12.745Z,56.25
2018-12-13T03:57:44.358Z,56.26
2018-12-13T03:58:15.998Z,56.25
2018-12-13T03:58:47.651Z,55.96
2018-12-13T03:59:19.253Z,55.94
2018-12-13T03:59:50.920Z,56.00
2018-12-13T04:00:22.513Z,56.27
2018-12-13T04:00:54.111Z,56.16
2018-12-13T04:01:25.703Z,56.27
2018-12-13T04:01:57.307Z,56.45
2018-12-13T04:02:30.244Z,56.40
2018-12-13T04:03:00.569Z,56.25
2018-12-13T04:03:32.207Z,56.16
2018-12-13T04:04:03.792Z,56.02
2018-12-13T04:04:35.386Z,56.22
2018-12-13T04:05:06.993Z,56.10
2018-12-13T04:05:38.607Z,56.16
2018-12-13T04:06:10.201Z,56.10
2018-12-13T04:06:41.807Z,56.09
2018-12-13T04:07:13.402Z,56.39
2018-12-13T04:07:44.994Z,56.08
2018-12-13T04:08:16.634Z,56.31
2018-12-13T04:08:48.216Z,56.42
2018-12-13T04:09:19.798Z,56.21
2018-12-13T04:09:51.394Z,56.22
2018-12-13T04:10:23.025Z,56.27
2018-12-13T04:10:54.618Z,56.24
2018-12-13T04:11:26.228Z,56.10
2018-12-13T04:11:57.832Z,56.14
2018-12-13T04:12:29.426Z,55.98
2018-12-13T04:13:01.029Z,56.00
2018-12-13T04:13:32.651Z,56.16
2018-12-13T04:14:04.258Z,56.20
2018-12-13T04:14:35.854Z,56.14
2018-12-13T04:15:07.446Z,55.96
2018-12-13T04:15:39.038Z,55.87
2018-12-13T04:16:10.644Z,56.13
2018-12-13T04:16:42.250Z,55.96
2018-12-13T04:17:13.845Z,55.95
2018-12-13T04:17:45.433Z,55.91
2018-12-13T04:18:17.054Z,55.91
2018-12-13T04:18:48.687Z,55.79
2018-12-13T04:19:20.288Z,55.82
2018-12-13T04:19:51.896Z,55.70
2018-12-13T04:20:23.493Z,55.92
2018-12-13T04:20:55.080Z,55.91
2018-12-13T04:21:26.674Z,56.02
2018-12-13T04:21:58.279Z,56.13
2018-12-13T04:22:29.883Z,56.22
2018-12-13T04:23:01.480Z,56.16
2018-12-13T04:23:33.088Z,56.20
2018-12-13T04:24:04.681Z,56.18
2018-12-13T04:24:36.275Z,56.21
2018-12-13T04:25:07.867Z,56.24
2018-12-13T04:25:39.461Z,56.09
2018-12-13T04:26:11.070Z,56.24
2018-12-13T04:26:42.670Z,56.19
2018-12-13T04:27:14.263Z,56.21
2018-12-13T04:27:45.857Z,56.32
2018-12-13T04:28:17.471Z,56.15
2018-12-13T04:28:49.099Z,56.11
2018-12-13T04:29:20.694Z,56.19
2018-12-13T04:29:52.285Z,56.11
2018-12-13T04:30:23.869Z,56.12
2018-12-13T04:30:55.462Z,56.17
2018-12-13T04:31:27.064Z,56.08
2018-12-13T04:31:58.672Z,55.99
2018-12-13T04:32:30.284Z,56.08
2018-12-13T04:33:01.881Z,56.10
2018-12-13T04:33:33.535Z,56.09
2018-12-13T04:34:05.138Z,56.14
2018-12-13T04:34:36.746Z,56.13
2018-12-13T04:35:08.352Z,56.32
2018-12-13T04:35:39.961Z,56.19
2018-12-13T04:36:13.355Z,56.48
2018-12-13T04:36:43.234Z,56.30
2018-12-13T04:37:14.844Z,56.33
2018-12-13T04:37:46.455Z,56.19
2018-12-13T04:38:18.050Z,56.22
2018-12-13T04:38:49.674Z,56.04
2018-12-13T04:39:21.266Z,56.27
2018-12-13T04:39:52.871Z,56.21
2018-12-13T04:40:24.480Z,56.05
2018-12-13T04:40:56.068Z,56.00
2018-12-13T04:41:27.665Z,55.85
2018-12-13T04:41:59.272Z,55.89
2018-12-13T04:42:30.875Z,55.88
2018-12-13T04:43:02.484Z,55.76
2018-12-13T04:43:34.087Z,55.69
2018-12-13T04:44:05.710Z,55.84
2018-12-13T04:44:37.962Z,55.59
2018-12-13T04:45:08.944Z,55.63
2018-12-13T04:45:40.548Z,55.79
2018-12-13T04:46:12.142Z,55.76
2018-12-13T04:46:43.776Z,55.78
2018-12-13T04:47:15.384Z,55.88
2018-12-13T04:47:46.991Z,55.93
2018-12-13T04:48:18.576Z,55.98
2018-12-13T04:48:50.211Z,56.13
2018-12-13T04:49:21.828Z,56.18
2018-12-13T04:49:54.434Z,56.03
2018-12-13T04:50:25.086Z,55.99
2018-12-13T04:50:56.678Z,55.96
2018-12-13T04:51:28.277Z,56.07
2018-12-13T04:51:59.888Z,56.11
2018-12-13T04:52:31.482Z,56.10
2018-12-13T04:53:03.084Z,56.09
2018-12-13T04:53:34.678Z,56.15
2018-12-13T04:54:06.315Z,56.09
2018-12-13T04:54:37.909Z,56.10
2018-12-13T04:55:09.516Z,56.02
2018-12-13T04:55:41.117Z,55.94
2018-12-13T04:56:12.772Z,56.19
2018-12-13T04:56:44.371Z,55.96
2018-12-13T04:57:15.980Z,56.06
2018-12-13T04:57:47.561Z,55.83
2018-12-13T04:58:19.164Z,55.80
2018-12-13T04:58:50.815Z,55.80
2018-12-13T04:59:22.402Z,55.79
2018-12-13T04:59:53.994Z,55.78
2018-12-13T05:00:25.596Z,55.77
2018-12-13T05:00:57.208Z,55.87
2018-12-13T05:01:28.816Z,55.91
2018-12-13T05:02:00.400Z,55.92
2018-12-13T05:02:31.993Z,55.92
2018-12-13T05:03:03.585Z,55.91
2018-12-13T05:03:35.190Z,56.04
2018-12-13T05:04:06.827Z,56.05
2018-12-13T05:04:38.411Z,56.05
2018-12-13T05:05:10.009Z,55.98
2018-12-13T05:05:41.612Z,55.97
2018-12-13T05:06:13.225Z,56.01
2018-12-13T05:06:44.836Z,56.11
2018-12-13T05:07:16.433Z,56.02
2018-12-13T05:07:48.026Z,56.08
2018-12-13T05:08:19.618Z,56.05
2018-12-13T05:08:51.210Z,56.02
2018-12-13T05:09:22.831Z,56.10
2018-12-13T05:09:54.432Z,56.18
2018-12-13T05:10:26.033Z,56.19
2018-12-13T05:10:57.625Z,55.94
2018-12-13T05:11:29.217Z,56.12
2018-12-13T05:12:00.853Z,56.08
2018-12-13T05:12:32.433Z,56.25
2018-12-13T05:13:04.043Z,56.07
2018-12-13T05:13:35.659Z,56.13
2018-12-13T05:14:07.297Z,56.25
2018-12-13T05:14:38.940Z,56.04
2018-12-13T05:15:10.578Z,56.07
2018-12-13T05:15:42.174Z,56.17
2018-12-13T05:16:13.766Z,56.07
2018-12-13T05:16:45.370Z,56.12
2018-12-13T05:17:16.971Z,55.97
2018-12-13T05:17:48.549Z,55.98
2018-12-13T05:18:20.146Z,55.96
2018-12-13T05:18:51.737Z,55.98
2018-12-13T05:19:23.357Z,56.06
2018-12-13T05:19:54.963Z,56.04
2018-12-13T05:20:26.545Z,56.09
2018-12-13T05:20:58.194Z,56.05
2018-12-13T05:21:29.800Z,56.08
2018-12-13T05:22:01.402Z,56.01
2018-12-13T05:22:33.008Z,55.91
2018-12-13T05:23:04.610Z,55.92
2018-12-13T05:23:36.206Z,55.96
2018-12-13T05:24:07.832Z,55.99
2018-12-13T05:24:39.435Z,56.05
2018-12-13T05:25:11.044Z,55.91
2018-12-13T05:25:42.637Z,55.87
2018-12-13T05:26:14.226Z,55.91
2018-12-13T05:26:45.840Z,55.86
2018-12-13T05:27:17.438Z,55.88
2018-12-13T05:27:49.033Z,55.85
2018-12-13T05:28:20.629Z,55.86
2018-12-13T05:28:52.229Z,55.86
2018-12-13T05:29:23.844Z,55.73
2018-12-13T05:29:55.437Z,55.83
2018-12-13T05:30:27.019Z,55.89
2018-12-13T05:30:58.617Z,55.92
2018-12-13T05:31:30.233Z,55.92
2018-12-13T05:32:01.816Z,55.83
2018-12-13T05:32:33.413Z,55.76
2018-12-13T05:33:05.010Z,55.83
2018-12-13T05:33:36.595Z,55.87
2018-12-13T05:34:08.190Z,55.83
2018-12-13T05:34:39.795Z,55.79
2018-12-13T05:35:11.390Z,55.75
2018-12-13T05:35:43.011Z,55.90
2018-12-13T05:36:14.610Z,55.83
2018-12-13T05:36:46.205Z,55.76
2018-12-13T05:37:17.798Z,55.87
2018-12-13T05:37:49.402Z,55.78
2018-12-13T05:38:21.007Z,55.85
2018-12-13T05:38:52.601Z,56.05
2018-12-13T05:39:24.237Z,55.86
2018-12-13T05:39:55.851Z,55.88
2018-12-13T05:40:27.449Z,55.73
2018-12-13T05:40:59.027Z,56.03
2018-12-13T05:41:30.614Z,56.11
2018-12-13T05:42:02.209Z,56.05
2018-12-13T05:42:33.802Z,55.97
2018-12-13T05:43:05.401Z,56.04
2018-12-13T05:43:37.008Z,56.02
2018-12-13T05:44:08.603Z,56.17
2018-12-13T05:44:40.208Z,56.14
2018-12-13T05:45:11.876Z,56.00
2018-12-13T05:45:43.470Z,56.16
2018-12-13T05:46:15.076Z,56.20
2018-12-13T05:46:46.669Z,56.34
2018-12-13T05:47:18.271Z,56.21
2018-12-13T05:47:49.861Z,56.23
2018-12-13T05:48:21.454Z,56.64
2018-12-13T05:48:53.037Z,56.34
2018-12-13T05:49:24.695Z,56.66
2018-12-13T05:49:56.289Z,56.68
2018-12-13T05:50:27.872Z,56.55
2018-12-13T05:50:59.484Z,56.57
2018-12-13T05:51:31.067Z,56.64
2018-12-13T05:52:02.668Z,56.47
2018-12-13T05:52:34.261Z,56.88
2018-12-13T05:53:05.857Z,56.99
2018-12-13T05:53:37.454Z,56.83
2018-12-13T05:54:09.058Z,57.05
2018-12-13T05:54:40.690Z,56.92
2018-12-13T05:55:12.308Z,56.73
2018-12-13T05:55:43.902Z,56.79
2018-12-13T05:56:15.504Z,56.77
2018-12-13T05:56:47.126Z,56.68
2018-12-13T05:57:18.735Z,57.00
2018-12-13T05:57:50.330Z,56.77
2018-12-13T05:58:21.940Z,56.85
2018-12-13T05:58:53.535Z,56.90
2018-12-13T05:59:25.133Z,56.97
2018-12-13T05:59:56.751Z,56.90
2018-12-13T06:00:28.355Z,56.96
2018-12-13T06:00:59.955Z,56.97
2018-12-13T06:01:31.554Z,57.08
2018-12-13T06:02:03.159Z,57.03
2018-12-13T06:02:35.464Z,57.02
2018-12-13T06:03:07.104Z,57.03
2018-12-13T06:03:38.717Z,56.78
2018-12-13T06:04:10.311Z,56.85
2018-12-13T06:04:41.948Z,56.82
2018-12-13T06:05:13.561Z,56.88
2018-12-13T06:05:45.155Z,56.87
2018-12-13T06:06:16.745Z,56.75
2018-12-13T06:06:48.339Z,56.80
2018-12-13T06:07:19.930Z,56.71
2018-12-13T06:07:54.877Z,56.68
2018-12-13T06:08:23.198Z,56.78
2018-12-13T06:08:54.789Z,56.60
2018-12-13T06:09:26.398Z,56.59
2018-12-13T06:09:58.035Z,56.55
2018-12-13T06:10:29.624Z,56.59
2018-12-13T06:11:01.217Z,56.50
2018-12-13T06:11:32.821Z,56.51
2018-12-13T06:12:04.419Z,56.62
2018-12-13T06:12:36.011Z,56.45
2018-12-13T06:13:07.605Z,56.42
2018-12-13T06:13:39.212Z,56.57
2018-12-13T06:14:10.809Z,56.55
2018-12-13T06:14:42.455Z,56.65
2018-12-13T06:15:14.054Z,56.45
2018-12-13T06:15:45.660Z,56.55
2018-12-13T06:16:17.258Z,56.26
2018-12-13T06:16:48.865Z,56.37
2018-12-13T06:17:20.476Z,56.49
2018-12-13T06:17:52.074Z,56.47
2018-12-13T06:18:23.684Z,56.44
2018-12-13T06:18:55.297Z,56.32
2018-12-13T06:19:27.057Z,56.32
2018-12-13T06:19:58.595Z,56.30
2018-12-13T06:20:30.189Z,56.44
2018-12-13T06:21:01.785Z,56.25
2018-12-13T06:21:36.846Z,56.33
2018-12-13T06:22:05.026Z,56.47
2018-12-13T06:22:36.635Z,56.37
2018-12-13T06:23:08.239Z,56.33
2018-12-13T06:23:39.833Z,56.38
2018-12-13T06:24:11.436Z,56.48
2018-12-13T06:24:43.034Z,56.30
2018-12-13T06:25:14.668Z,56.84
2018-12-13T06:25:46.276Z,56.51
2018-12-13T06:26:17.875Z,56.62
2018-12-13T06:26:49.469Z,56.47
2018-12-13T06:27:21.067Z,56.82
2018-12-13T06:27:52.666Z,56.58
2018-12-13T06:28:24.258Z,56.90
2018-12-13T06:28:55.871Z,56.57
2018-12-13T06:29:27.466Z,56.80
2018-12-13T06:29:59.283Z,56.65
2018-12-13T06:30:30.765Z,56.61
2018-12-13T06:31:02.372Z,56.73
2018-12-13T06:31:33.973Z,56.77
2018-12-13T06:32:05.589Z,56.63
2018-12-13T06:32:37.182Z,56.58
2018-12-13T06:33:08.777Z,56.73
2018-12-13T06:33:40.384Z,56.95
2018-12-13T06:34:11.987Z,56.96
2018-12-13T06:34:43.571Z,56.86
2018-12-13T06:35:15.202Z,56.95
2018-12-13T06:35:46.805Z,56.75
2018-12-13T06:36:18.410Z,56.90
2018-12-13T06:36:50.006Z,56.93
2018-12-13T06:37:21.602Z,57.00
2018-12-13T06:37:53.199Z,57.08
2018-12-13T06:38:24.815Z,56.95
2018-12-13T06:38:56.427Z,56.90
2018-12-13T06:39:28.036Z,56.82
2018-12-13T06:39:59.658Z,56.85
2018-12-13T06:40:31.240Z,56.83
2018-12-13T06:41:02.857Z,56.94
2018-12-13T06:41:34.469Z,56.78
2018-12-13T06:42:06.081Z,56.69
2018-12-13T06:42:37.688Z,56.75
2018-12-13T06:43:09.296Z,56.71
2018-12-13T06:43:40.880Z,56.68
2018-12-13T06:44:12.477Z,56.79
2018-12-13T06:44:44.084Z,56.72
2018-12-13T06:45:15.715Z,56.71
2018-12-13T06:45:47.320Z,56.67
2018-12-13T06:46:18.918Z,56.74
2018-12-13T06:46:50.527Z,56.62